LDDU

Dubrovnik Airport

Airport
ICAO code
LDDU
IATA Code
DBV
Summary
ICAO Region
EUR
ICAO Territory
Location

Cilipi, Dubrovnik-Neretva County

Serving
Dubrovnik
Elevation
527 ft
Coordinates
42° 33' 41" N , 18° 16' 6" E
KCC
Csa
Metar
Observation
LDDU 081330Z VRB05KT 9999 -RA FEW055 26/21 Q1013 RETS BECMG 30010KT
Station
Dubrovnik / Cilipi
Date/Time
2022-08-08 13:30:00
Wind speed
05 kts
Lowest cloud amount
few clouds
Temperature
26°C
Dew point
21°C
Humidity
74%
QNH
1013 hPa
Weather condition
light rain

Dubrovnik Airport, also referred to as Čilipi Airport, is the international airport of Dubrovnik, Croatia.

Climatology

Warm mediterranean climate (Köppen climate classification Csa)

Runways

Designator Length Width Surface Rops
12/30 3300 45 ASP Yes/Yes

Airport map

Aerial View

Airport accidents

SKYbrary Partners:

Safety knowledge contributed by: